Time;durP1;ratioP1;P1;durP2;ratioP2;P2;SDS_P1;SDS_P2;PMS_P1;PMS_P2;Temp;Humidity;BMP_temperature;BMP_pressure;BME280_temperature;BME280_humidity;BME280_pressure;Samples;Min_cycle;Max_cycle;Signal;HPM_P1;HPM_P2
2022/05/14 00:00:49;;;;;;;14.93;6.67;;;;;;;-145.18;100.00;60484.78;5043630;28;20029;-68
2022/05/14 00:03:14;;;;;;;16.13;5.60;;;;;;;-145.18;100.00;60484.78;5042343;28;20033;-68
2022/05/14 00:05:41;;;;;;;14.73;5.50;;;;;;;-145.18;100.00;60484.78;5048076;28;20029;-68
2022/05/14 00:08:07;;;;;;;17.20;5.43;;;;;;;-145.18;100.00;60484.78;5052342;28;20036;-68
2022/05/14 00:10:33;;;;;;;16.90;5.57;;;;;;;-145.18;100.00;60484.78;5054966;28;20017;-68
2022/05/14 00:13:04;;;;;;;12.77;5.43;;;;;;;-145.18;100.00;60484.78;5050300;28;20017;-68
2022/05/14 00:15:36;;;;;;;18.95;5.72;;;;;;;-145.18;100.00;60484.78;5033342;28;20427;-68
2022/05/14 00:18:02;;;;;;;17.17;6.18;;;;;;;-145.18;100.00;60484.78;5046241;28;20087;-68
2022/05/14 00:20:28;;;;;;;16.03;5.90;;;;;;;-145.18;100.00;60484.78;5054526;28;20029;-68
2022/05/14 00:22:54;;;;;;;16.77;5.93;;;;;;;-145.18;100.00;60484.78;5039367;28;20021;-68
2022/05/14 00:25:22;;;;;;;18.73;6.30;;;;;;;-145.18;100.00;60484.78;5051927;28;20390;-68
2022/05/14 00:27:49;;;;;;;16.90;5.77;;;;;;;-145.18;100.00;60484.78;5044667;28;20033;-68
2022/05/14 00:30:15;;;;;;;14.60;5.40;;;;;;;-145.18;100.00;60484.78;5037522;28;20025;-68
2022/05/14 00:32:41;;;;;;;15.73;5.90;;;;;;;-145.18;100.00;60484.78;5038077;28;20029;-68
2022/05/14 00:35:09;;;;;;;14.70;5.00;;;;;;;-145.18;100.00;60484.78;5034217;28;20029;-68
2022/05/14 00:37:35;;;;;;;11.47;5.17;;;;;;;-145.18;100.00;60484.78;5049375;28;20056;-68
2022/05/14 00:40:03;;;;;;;13.03;5.83;;;;;;;-145.18;100.00;60484.78;5054357;28;20028;-68
2022/05/14 00:42:31;;;;;;;14.90;5.73;;;;;;;-145.18;100.00;60484.78;5038184;28;20064;-68
2022/05/14 00:44:57;;;;;;;12.87;5.23;;;;;;;-145.18;100.00;60484.78;5036940;28;20033;-68
2022/05/14 00:47:23;;;;;;;16.20;5.47;;;;;;;-145.18;100.00;60484.78;5041348;28;20554;-68
2022/05/14 00:49:48;;;;;;;16.13;5.40;;;;;;;-145.18;100.00;60484.78;5039186;28;20029;-68
2022/05/14 00:52:17;;;;;;;13.67;5.47;;;;;;;-145.18;100.00;60484.78;5037434;28;20438;-68
2022/05/14 00:55:01;;;;;;;14.53;5.30;;;;;;;-145.18;100.00;60484.78;5038430;28;20060;-68
2022/05/14 00:57:31;;;;;;;18.37;5.87;;;;;;;-145.18;100.00;60484.78;5041857;28;20390;-68
2022/05/14 01:00:00;;;;;;;15.13;5.23;;;;;;;-145.18;100.00;60484.78;5035133;28;20025;-68
2022/05/14 01:02:25;;;;;;;19.13;5.20;;;;;;;-145.18;100.00;60484.78;5039687;28;20474;-68
2022/05/14 01:04:51;;;;;;;16.70;5.17;;;;;;;-145.18;100.00;60484.78;5053108;28;20166;-68
2022/05/14 01:07:19;;;;;;;13.63;4.70;;;;;;;-145.18;100.00;60484.78;5052507;28;20029;-68
2022/05/14 01:09:49;;;;;;;12.40;4.87;;;;;;;-145.18;100.00;60484.78;5038249;28;20124;-68
2022/05/14 01:12:18;;;;;;;15.73;5.13;;;;;;;-145.18;100.00;60484.78;5033936;28;20100;-68
2022/05/14 01:14:44;;;;;;;14.50;4.67;;;;;;;-145.18;100.00;60484.78;5034888;28;20541;-68
2022/05/14 01:17:10;;;;;;;16.50;5.13;;;;;;;-145.18;100.00;60484.78;5040780;28;20021;-68
2022/05/14 01:19:35;;;;;;;15.30;5.07;;;;;;;-145.18;100.00;60484.78;5044073;28;20025;-68
2022/05/14 01:22:39;;;;;;;11.30;4.17;;;;;;;-145.18;100.00;60484.78;5037030;28;20049;-68
2022/05/14 01:28:08;;;;;;;11.87;4.70;;;;;;;-145.18;100.00;60484.78;5040047;28;20152;-68
2022/05/14 01:30:33;;;;;;;14.83;5.13;;;;;;;-145.18;100.00;60484.78;5040546;28;20820;-68
2022/05/14 01:33:05;;;;;;;13.43;5.37;;;;;;;-145.18;100.00;60484.78;5042369;28;20021;-68
2022/05/14 01:35:36;;;;;;;14.15;4.90;;;;;;;-145.18;100.00;60484.78;5033105;28;20033;-68
2022/05/14 01:38:01;;;;;;;14.40;5.47;;;;;;;-145.18;100.00;60484.78;5041943;28;20029;-68
2022/05/14 01:40:28;;;;;;;12.80;4.80;;;;;;;-145.18;100.00;60484.78;5049670;28;20068;-68
2022/05/14 01:42:54;;;;;;;17.53;4.83;;;;;;;-145.18;100.00;60484.78;5039056;28;20492;-68
2022/05/14 01:45:19;;;;;;;11.73;5.23;;;;;;;-145.18;100.00;60484.78;5043048;28;20037;-68
2022/05/14 01:47:44;;;;;;;12.00;4.63;;;;;;;-145.18;100.00;60484.78;5045919;28;20421;-68
2022/05/14 01:50:10;;;;;;;11.13;4.77;;;;;;;-145.18;100.00;60484.78;5048576;28;20063;-68
2022/05/14 01:52:35;;;;;;;12.63;4.80;;;;;;;-145.18;100.00;60484.78;5052292;28;20479;-68
2022/05/14 01:55:01;;;;;;;14.07;4.80;;;;;;;-145.18;100.00;60484.78;5044701;28;20032;-68
2022/05/14 01:57:26;;;;;;;11.03;4.80;;;;;;;-145.18;100.00;60484.78;5048869;28;20110;-68
2022/05/14 01:59:51;;;;;;;13.00;4.73;;;;;;;-145.18;100.00;60484.78;5035403;28;20419;-68
2022/05/14 02:02:17;;;;;;;15.03;4.60;;;;;;;-145.18;100.00;60484.78;5035427;28;20037;-68
2022/05/14 02:04:42;;;;;;;11.43;4.70;;;;;;;-145.18;100.00;60484.78;5040663;28;20025;-68
2022/05/14 02:07:08;;;;;;;13.07;4.60;;;;;;;-145.18;100.00;60484.78;5038025;28;20035;-67
2022/05/14 02:09:33;;;;;;;13.53;4.93;;;;;;;-145.18;100.00;60484.78;5033899;28;20033;-68
2022/05/14 02:11:58;;;;;;;12.40;5.00;;;;;;;-145.18;100.00;60484.78;5047200;28;20029;-68
2022/05/14 02:14:24;;;;;;;12.60;5.20;;;;;;;-145.18;100.00;60484.78;5043664;28;20397;-68
2022/05/14 02:16:49;;;;;;;12.77;4.70;;;;;;;-145.18;100.00;60484.78;5047424;28;20137;-68
2022/05/14 02:19:14;;;;;;;10.87;4.53;;;;;;;-145.18;100.00;60484.78;5051072;28;20032;-68
2022/05/14 02:21:40;;;;;;;11.83;4.73;;;;;;;-145.18;100.00;60484.78;5051009;28;20036;-68
2022/05/14 02:24:05;;;;;;;21.27;4.93;;;;;;;-145.18;100.00;60484.78;5050220;28;20037;-68
2022/05/14 02:26:32;;;;;;;12.60;4.87;;;;;;;-145.18;100.00;60484.78;5047414;28;20490;-68
2022/05/14 02:28:57;;;;;;;11.93;4.90;;;;;;;-145.18;100.00;60484.78;5050839;28;20111;-68
2022/05/14 02:31:23;;;;;;;12.43;4.77;;;;;;;-145.18;100.00;60484.78;5041283;28;20112;-68
2022/05/14 02:33:48;;;;;;;14.67;4.50;;;;;;;-145.18;100.00;60484.78;5049271;28;20477;-68
2022/05/14 02:36:14;;;;;;;12.67;5.13;;;;;;;-145.18;100.00;60484.78;5052136;28;20071;-68
2022/05/14 02:38:40;;;;;;;14.07;4.83;;;;;;;-145.18;100.00;60484.78;5048072;28;20433;-68
2022/05/14 02:41:07;;;;;;;11.70;5.03;;;;;;;-145.18;100.00;60484.78;5045565;28;20036;-68
2022/05/14 02:43:32;;;;;;;11.63;4.73;;;;;;;-145.18;100.00;60484.78;5038239;28;20385;-68
2022/05/14 02:45:59;;;;;;;15.27;4.57;;;;;;;-145.18;100.00;60484.78;5046534;28;20041;-68
2022/05/14 02:48:25;;;;;;;17.17;4.93;;;;;;;-145.18;100.00;60484.78;5050674;28;20037;-68
2022/05/14 02:50:51;;;;;;;14.80;4.80;;;;;;;-145.18;100.00;60484.78;5041678;28;20048;-68
2022/05/14 02:53:16;;;;;;;15.03;4.63;;;;;;;-145.18;100.00;60484.78;5044144;28;20025;-68
2022/05/14 02:55:41;;;;;;;13.03;4.70;;;;;;;-145.18;100.00;60484.78;5031718;28;20079;-68
2022/05/14 02:58:07;;;;;;;13.73;4.60;;;;;;;-145.18;100.00;60484.78;5031809;28;20033;-68
2022/05/14 03:00:32;;;;;;;11.97;4.60;;;;;;;-145.18;100.00;60484.78;5038243;28;20112;-68
2022/05/14 03:02:58;;;;;;;11.17;4.53;;;;;;;-145.18;100.00;60484.78;5034670;28;20029;-68
2022/05/14 03:05:23;;;;;;;11.53;5.27;;;;;;;-145.18;100.00;60484.78;5044577;28;20032;-68
2022/05/14 03:07:49;;;;;;;10.53;4.63;;;;;;;-145.18;100.00;60484.78;5039466;28;20082;-68
2022/05/14 03:10:15;;;;;;;11.60;4.83;;;;;;;-145.18;100.00;60484.78;5051272;28;20039;-68
2022/05/14 03:12:41;;;;;;;9.90;4.43;;;;;;;-145.18;100.00;60484.78;5037887;28;20097;-68
2022/05/14 03:15:09;;;;;;;14.60;5.07;;;;;;;-145.18;100.00;60484.78;5039804;28;20104;-68
2022/05/14 03:17:34;;;;;;;15.57;4.97;;;;;;;-145.18;100.00;60484.78;5051218;28;20120;-68
2022/05/14 03:20:07;;;;;;;11.67;4.80;;;;;;;-145.18;100.00;60484.78;5049839;28;20519;-68
2022/05/14 03:22:35;;;;;;;13.67;5.30;;;;;;;-145.18;100.00;60484.78;5047283;28;20036;-68
2022/05/14 03:25:01;;;;;;;11.07;4.70;;;;;;;-145.18;100.00;60484.78;5049943;28;20051;-68
2022/05/14 03:27:26;;;;;;;14.70;5.27;;;;;;;-145.18;100.00;60484.78;5049906;28;20059;-68
2022/05/14 03:29:52;;;;;;;14.83;5.10;;;;;;;-145.18;100.00;60484.78;5038780;28;20057;-68
2022/05/14 03:32:18;;;;;;;12.67;4.90;;;;;;;-145.18;100.00;60484.78;5048796;28;20057;-68
2022/05/14 03:34:45;;;;;;;16.73;5.13;;;;;;;-145.18;100.00;60484.78;5035919;28;20109;-68
2022/05/14 03:37:10;;;;;;;11.47;5.20;;;;;;;-145.18;100.00;60484.78;5049325;28;20103;-68
2022/05/14 03:39:36;;;;;;;13.00;4.97;;;;;;;-145.18;100.00;60484.78;5046793;28;20112;-68
2022/05/14 03:42:01;;;;;;;14.00;4.70;;;;;;;-145.18;100.00;60484.78;5051155;28;20029;-68
2022/05/14 03:44:26;;;;;;;15.43;5.27;;;;;;;-145.18;100.00;60484.78;5043827;28;20458;-68
2022/05/14 03:46:52;;;;;;;15.17;5.30;;;;;;;-145.18;100.00;60484.78;5050143;28;20028;-68
2022/05/14 03:49:17;;;;;;;11.97;5.10;;;;;;;-145.18;100.00;60484.78;5048936;28;20033;-68
2022/05/14 03:51:43;;;;;;;13.63;5.33;;;;;;;-145.18;100.00;60484.78;5040512;28;20109;-68
2022/05/14 03:54:09;;;;;;;17.87;5.23;;;;;;;-145.18;100.00;60484.78;5033363;28;20040;-68
2022/05/14 03:56:39;;;;;;;13.33;5.20;;;;;;;-145.18;100.00;60484.78;5036812;28;20051;-68
2022/05/14 03:59:05;;;;;;;15.00;5.30;;;;;;;-145.18;100.00;60484.78;5034339;28;20029;-68
2022/05/14 04:01:31;;;;;;;11.07;5.70;;;;;;;-145.18;100.00;60484.78;5044570;28;20030;-68
2022/05/14 04:03:56;;;;;;;13.23;5.13;;;;;;;-145.18;100.00;60484.78;5045199;28;20080;-68
2022/05/14 04:06:21;;;;;;;16.50;5.53;;;;;;;-145.18;100.00;60484.78;5044738;28;20082;-68
2022/05/14 04:08:47;;;;;;;15.53;5.50;;;;;;;-145.18;100.00;60484.78;5043296;28;20366;-68
2022/05/14 04:11:12;;;;;;;17.97;4.93;;;;;;;-145.18;100.00;60484.78;5042719;28;20032;-68
2022/05/14 04:13:37;;;;;;;9.03;4.53;;;;;;;-145.18;100.00;60484.78;5032348;28;20029;-68
2022/05/14 04:16:03;;;;;;;12.80;5.27;;;;;;;-145.18;100.00;60484.78;5044221;28;20045;-68
2022/05/14 04:18:29;;;;;;;11.30;5.00;;;;;;;-145.18;100.00;60484.78;5048968;28;20033;-68
2022/05/14 04:20:57;;;;;;;12.03;5.00;;;;;;;-145.18;100.00;60484.78;5045709;28;20026;-68
2022/05/14 04:23:24;;;;;;;12.17;4.73;;;;;;;-145.18;100.00;60484.78;5043841;28;20052;-68
2022/05/14 04:25:51;;;;;;;15.53;5.30;;;;;;;-145.18;100.00;60484.78;5031305;28;20493;-68
2022/05/14 04:28:17;;;;;;;12.93;4.70;;;;;;;-145.18;100.00;60484.78;5035524;28;20021;-68
2022/05/14 04:30:43;;;;;;;10.83;4.40;;;;;;;-145.18;100.00;60484.78;5039718;28;20114;-67
2022/05/14 04:33:10;;;;;;;13.33;4.10;;;;;;;-145.18;100.00;60484.78;5048498;28;20025;-68
2022/05/14 04:35:35;;;;;;;13.17;4.30;;;;;;;-145.18;100.00;60484.78;5049259;28;20239;-68
2022/05/14 04:38:01;;;;;;;15.53;4.60;;;;;;;-145.18;100.00;60484.78;5047108;28;20160;-68
2022/05/14 04:40:27;;;;;;;12.93;4.20;;;;;;;-145.18;100.00;60484.78;5041782;28;20022;-67
2022/05/14 04:42:53;;;;;;;12.60;3.90;;;;;;;-145.18;100.00;60484.78;5030775;28;20037;-67
2022/05/14 04:45:18;;;;;;;15.40;4.30;;;;;;;-145.18;100.00;60484.78;5030350;28;20482;-67
2022/05/14 04:47:43;;;;;;;13.13;4.13;;;;;;;-145.18;100.00;60484.78;5038429;28;20054;-67
2022/05/14 04:50:10;;;;;;;14.37;4.57;;;;;;;-145.18;100.00;60484.78;5052605;28;20037;-67
2022/05/14 04:52:36;;;;;;;9.00;4.23;;;;;;;-145.18;100.00;60484.78;5054065;28;20496;-67
2022/05/14 04:55:01;;;;;;;12.57;4.10;;;;;;;-145.18;100.00;60484.78;5054257;28;20024;-67
2022/05/14 04:57:27;;;;;;;9.80;3.70;;;;;;;-145.18;100.00;60484.78;5053902;28;20386;-67
2022/05/14 04:59:53;;;;;;;12.27;4.03;;;;;;;-145.18;100.00;60484.78;5051618;28;20056;-67
2022/05/14 05:05:04;;;;;;;11.23;4.00;;;;;;;-145.18;100.00;60484.78;5042790;28;20035;-67
2022/05/14 05:07:29;;;;;;;11.23;3.93;;;;;;;-145.18;100.00;60484.78;5036241;28;20036;-67
2022/05/14 05:09:55;;;;;;;10.13;4.10;;;;;;;-145.18;100.00;60484.78;5033713;28;20029;-67
2022/05/14 05:12:20;;;;;;;17.03;4.43;;;;;;;-145.18;100.00;60484.78;5034021;28;20116;-68
2022/05/14 05:14:46;;;;;;;11.97;4.33;;;;;;;-145.18;100.00;60484.78;5034072;28;20037;-67
2022/05/14 05:17:11;;;;;;;15.23;4.13;;;;;;;-145.18;100.00;60484.78;5032115;28;20538;-68
2022/05/14 05:19:36;;;;;;;16.73;5.00;;;;;;;-145.18;100.00;60484.78;5033865;28;20047;-67
2022/05/14 05:22:02;;;;;;;14.93;4.67;;;;;;;-145.18;100.00;60484.78;5033836;28;20693;-67
2022/05/14 05:24:28;;;;;;;11.47;4.30;;;;;;;-145.18;100.00;60484.78;5033763;28;20108;-67
2022/05/14 05:26:53;;;;;;;14.00;4.67;;;;;;;-145.18;100.00;60484.78;5033061;28;20600;-66
2022/05/14 05:29:18;;;;;;;16.80;4.80;;;;;;;-145.18;100.00;60484.78;5033399;28;20029;-67
2022/05/14 05:31:44;;;;;;;13.73;5.10;;;;;;;-145.18;100.00;60484.78;5033585;28;20057;-67
2022/05/14 05:34:09;;;;;;;14.23;4.60;;;;;;;-145.18;100.00;60484.78;5033175;28;20496;-65
2022/05/14 05:36:35;;;;;;;13.93;4.80;;;;;;;-145.18;100.00;60484.78;5033645;28;20030;-66
2022/05/14 05:39:00;;;;;;;14.97;5.27;;;;;;;-145.18;100.00;60484.78;5042319;28;20035;-67
2022/05/14 05:41:26;;;;;;;16.70;4.93;;;;;;;-145.18;100.00;60484.78;5052906;28;20052;-67
2022/05/14 05:43:52;;;;;;;12.90;5.30;;;;;;;-145.18;100.00;60484.78;5053341;28;20048;-66
2022/05/14 05:46:18;;;;;;;11.35;4.35;;;;;;;-145.18;100.00;60484.78;5038306;28;20045;-66
2022/05/14 05:48:43;;;;;;;10.75;3.92;;;;;;;-145.18;100.00;60484.78;5031712;28;20079;-67
2022/05/14 05:51:09;;;;;;;13.32;4.03;;;;;;;-145.18;100.00;60484.78;5033077;28;20033;-67
2022/05/14 05:59:04;;;;;;;12.23;4.05;;;;;;;-145.18;100.00;60484.78;5032935;28;20044;-66
2022/05/14 06:01:30;;;;;;;12.68;4.30;;;;;;;-145.18;100.00;60484.78;5048500;28;20031;-67
2022/05/14 06:03:55;;;;;;;14.70;4.03;;;;;;;-145.18;100.00;60484.78;5051309;28;20041;-66
2022/05/14 06:06:21;;;;;;;13.95;4.22;;;;;;;-145.18;100.00;60484.78;5052477;28;20043;-66
2022/05/14 06:08:50;;;;;;;14.98;4.93;;;;;;;-145.18;100.00;60484.78;5052561;28;20040;-66
2022/05/14 06:11:16;;;;;;;17.85;5.20;;;;;;;-145.18;100.00;60484.78;5050820;28;20465;-67
2022/05/14 06:13:43;;;;;;;17.75;5.40;;;;;;;-145.18;100.00;60484.78;5051771;28;20104;-67
2022/05/14 06:16:12;;;;;;;10.93;4.60;;;;;;;-145.18;100.00;60484.78;5038967;28;20041;-66
2022/05/14 06:18:38;;;;;;;13.23;4.50;;;;;;;-145.18;100.00;60484.78;5032515;28;20025;-66
2022/05/14 06:21:07;;;;;;;15.95;4.85;;;;;;;-145.18;100.00;60484.78;5032605;28;20107;-67
2022/05/14 06:23:33;;;;;;;15.30;4.60;;;;;;;-145.18;100.00;60484.78;5032086;28;20083;-67
2022/05/14 06:25:59;;;;;;;10.85;4.03;;;;;;;-145.18;100.00;60484.78;5032468;28;20033;-66
2022/05/14 06:28:25;;;;;;;15.63;4.38;;;;;;;-145.18;100.00;60484.78;5038573;28;20127;-66
2022/05/14 06:30:50;;;;;;;17.75;4.75;;;;;;;-145.18;100.00;60484.78;5033331;28;20136;-66
2022/05/14 06:33:17;;;;;;;15.50;4.47;;;;;;;-145.18;100.00;60484.78;5032021;28;20036;-66
2022/05/14 06:35:43;;;;;;;14.13;4.68;;;;;;;-145.18;100.00;60484.78;5037738;28;20029;-67
2022/05/14 06:38:08;;;;;;;14.82;4.53;;;;;;;-145.18;100.00;60484.78;5047559;28;20492;-66
2022/05/14 06:40:35;;;;;;;16.63;4.50;;;;;;;-145.18;100.00;60484.78;5035598;28;20540;-67
2022/05/14 06:43:00;;;;;;;12.90;4.93;;;;;;;-145.18;100.00;60484.78;5048510;28;20104;-66
2022/05/14 06:45:26;;;;;;;18.83;5.22;;;;;;;-145.18;100.00;60484.78;5037542;28;20127;-67
2022/05/14 06:47:52;;;;;;;14.35;4.03;;;;;;;-145.18;100.00;60484.78;5036215;28;20399;-66
2022/05/14 06:50:18;;;;;;;14.93;4.78;;;;;;;-145.18;100.00;60484.78;5036862;28;20087;-67
2022/05/14 06:52:48;;;;;;;15.80;4.63;;;;;;;-145.18;100.00;60484.78;5051414;28;20371;-67
2022/05/14 06:55:17;;;;;;;16.02;4.90;;;;;;;-145.18;100.00;60484.78;5049981;28;20078;-66
2022/05/14 06:57:43;;;;;;;19.33;4.93;;;;;;;-145.18;100.00;60484.78;5048362;28;20082;-67
2022/05/14 07:00:09;;;;;;;16.48;5.25;;;;;;;-145.18;100.00;60484.78;5042312;28;20041;-67
2022/05/14 07:02:35;;;;;;;13.93;4.55;;;;;;;-145.18;100.00;60484.78;5034061;28;20037;-66
2022/05/14 07:07:47;;;;;;;13.57;4.70;;;;;;;-145.18;100.00;60484.78;5048854;28;20071;-66
2022/05/14 07:10:13;;;;;;;15.68;4.43;;;;;;;-145.18;100.00;60484.78;5050853;28;20056;-67
2022/05/14 07:12:38;;;;;;;16.52;4.68;;;;;;;-145.18;100.00;60484.78;5034453;28;20021;-67
2022/05/14 07:15:05;;;;;;;15.57;4.47;;;;;;;-145.18;100.00;60484.78;5031513;28;20033;-66
2022/05/14 07:17:31;;;;;;;19.10;4.40;;;;;;;-145.18;100.00;60484.78;5032545;28;20083;-67
2022/05/14 07:19:56;;;;;;;17.80;4.43;;;;;;;-145.18;100.00;60484.78;5050996;28;20029;-66
2022/05/14 07:22:22;;;;;;;14.30;4.35;;;;;;;-145.18;100.00;60484.78;5036963;28;20033;-66
2022/05/14 07:24:47;;;;;;;18.20;4.70;;;;;;;-145.18;100.00;60484.78;5033796;28;20034;-67
2022/05/14 07:27:13;;;;;;;16.52;4.18;;;;;;;-145.18;100.00;60484.78;5043049;28;20095;-66
2022/05/14 07:29:41;;;;;;;18.23;4.63;;;;;;;-145.18;100.00;60484.78;5044291;28;20461;-67
2022/05/14 07:32:09;;;;;;;22.48;4.70;;;;;;;-145.18;100.00;60484.78;5031075;28;20556;-67
2022/05/14 07:34:34;;;;;;;20.13;4.68;;;;;;;-145.18;100.00;60484.78;5031629;28;20028;-67
2022/05/14 07:37:21;;;;;;;14.15;4.13;;;;;;;-145.18;100.00;60484.78;5031352;28;20535;-66
2022/05/14 07:39:53;;;;;;;16.95;4.90;;;;;;;-145.18;100.00;60484.78;5047708;28;20029;-67
2022/05/14 07:42:32;;;;;;;11.15;3.92;;;;;;;-145.18;100.00;60484.78;5049639;28;20108;-66
2022/05/14 07:45:00;;;;;;;14.45;3.75;;;;;;;-145.18;100.00;60484.78;5043521;28;20017;-66
2022/05/14 07:47:27;;;;;;;19.52;4.03;;;;;;;-145.18;100.00;60484.78;5049578;28;20021;-67
2022/05/14 07:49:52;;;;;;;18.50;4.07;;;;;;;-145.18;100.00;60484.78;5050843;28;20143;-67
2022/05/14 07:52:19;;;;;;;15.38;4.68;;;;;;;-145.18;100.00;60484.78;5048557;28;20100;-68
2022/05/14 07:54:45;;;;;;;18.27;4.35;;;;;;;-145.18;100.00;60484.78;5033191;28;20063;-67
2022/05/14 07:57:10;;;;;;;14.73;3.75;;;;;;;-145.18;100.00;60484.78;5048213;28;20514;-67
2022/05/14 07:59:37;;;;;;;16.70;4.32;;;;;;;-145.18;100.00;60484.78;5047101;28;20056;-67
2022/05/14 08:02:05;;;;;;;13.23;3.88;;;;;;;-145.18;100.00;60484.78;5049672;28;20032;-67
2022/05/14 08:04:32;;;;;;;15.98;4.55;;;;;;;-145.18;100.00;60484.78;5050629;28;20420;-66
2022/05/14 08:06:57;;;;;;;16.20;3.90;;;;;;;-145.18;100.00;60484.78;5044477;28;20029;-67
2022/05/14 08:09:22;;;;;;;14.98;3.55;;;;;;;-145.18;100.00;60484.78;5041469;28;20056;-67
2022/05/14 08:11:48;;;;;;;13.70;3.88;;;;;;;-145.18;100.00;60484.78;5047991;28;20052;-67
2022/05/14 08:14:14;;;;;;;14.20;4.30;;;;;;;-145.18;100.00;60484.78;5046954;28;20488;-66
2022/05/14 08:16:40;;;;;;;21.65;4.22;;;;;;;-145.18;100.00;60484.78;5043411;28;20047;-66
2022/05/14 08:19:05;;;;;;;14.48;3.72;;;;;;;-145.18;100.00;60484.78;5050367;28;20101;-67
2022/05/14 08:24:30;;;;;;;12.48;3.60;;;;;;;-145.18;100.00;60484.78;5046543;28;20036;-67
2022/05/14 08:26:59;;;;;;;12.98;3.50;;;;;;;-145.18;100.00;60484.78;5049254;28;20163;-67
2022/05/14 08:29:24;;;;;;;13.40;3.17;;;;;;;-145.18;100.00;60484.78;5034580;28;20453;-66
2022/05/14 08:31:50;;;;;;;12.75;3.03;;;;;;;-145.18;100.00;60484.78;5034992;28;20029;-67
2022/05/14 08:34:16;;;;;;;11.52;3.17;;;;;;;-145.18;100.00;60484.78;5051926;28;20047;-67
2022/05/14 08:36:42;;;;;;;14.90;3.05;;;;;;;-145.18;100.00;60484.78;5051693;28;20520;-67
2022/05/14 08:39:10;;;;;;;12.73;3.10;;;;;;;-145.18;100.00;60484.78;5034091;28;20029;-67
2022/05/14 08:41:38;;;;;;;15.32;3.50;;;;;;;-145.18;100.00;60484.78;5050998;28;20111;-66
2022/05/14 08:44:08;;;;;;;14.98;3.58;;;;;;;-145.18;100.00;60484.78;5045908;28;20038;-66
2022/05/14 08:46:37;;;;;;;14.23;3.67;;;;;;;-145.18;100.00;60484.78;5038238;28;20523;-66
2022/05/14 08:49:21;;;;;;;12.25;3.80;;;;;;;-145.18;100.00;60484.78;5039747;28;20068;-66
2022/05/14 08:51:50;;;;;;;13.95;3.50;;;;;;;-145.18;100.00;60484.78;5042488;28;20469;-67
2022/05/14 08:54:16;;;;;;;14.88;3.88;;;;;;;-145.18;100.00;60484.78;5040086;28;20373;-67
2022/05/14 08:57:03;;;;;;;13.05;3.10;;;;;;;-145.18;100.00;60484.78;5039573;28;20028;-66
2022/05/14 08:59:37;;;;;;;14.77;2.83;;;;;;;-145.18;100.00;60484.78;5034943;28;20040;-67
2022/05/14 09:02:14;;;;;;;12.20;3.33;;;;;;;-145.18;100.00;60484.78;5048161;28;20032;-67
2022/05/14 09:04:39;;;;;;;12.23;3.00;;;;;;;-145.18;100.00;60484.78;5040565;28;20502;-66
2022/05/14 09:07:06;;;;;;;13.48;3.67;;;;;;;-145.18;100.00;60484.78;5041005;28;20156;-67
2022/05/14 09:09:32;;;;;;;14.25;3.60;;;;;;;-145.18;100.00;60484.78;5042124;28;20033;-67
2022/05/14 09:12:00;;;;;;;14.05;2.90;;;;;;;-145.18;100.00;60484.78;5043034;28;20027;-67
2022/05/14 09:14:33;;;;;;;11.98;2.80;;;;;;;-145.18;100.00;60484.78;5044026;28;20044;-67
2022/05/14 09:17:11;;;;;;;17.00;3.30;;;;;;;-145.18;100.00;60484.78;5038930;28;20263;-67
2022/05/14 09:19:40;;;;;;;16.63;4.00;;;;;;;-145.18;100.00;60484.78;5041644;28;20460;-67
2022/05/14 09:22:31;;;;;;;17.63;3.50;;;;;;;-145.18;100.00;60484.78;5037699;28;20036;-67
2022/05/14 09:24:56;;;;;;;18.23;3.10;;;;;;;-145.18;100.00;60484.78;5047138;28;20044;-67
2022/05/14 09:27:27;;;;;;;9.48;3.03;;;;;;;-145.18;100.00;60484.78;5037490;28;20029;-67
2022/05/14 09:29:55;;;;;;;14.77;3.20;;;;;;;-145.18;100.00;60484.78;5042833;28;20477;-67
2022/05/14 09:32:21;;;;;;;13.40;2.85;;;;;;;-145.18;100.00;60484.78;5044214;28;20035;-66
2022/05/14 09:34:47;;;;;;;16.23;3.50;;;;;;;-145.18;100.00;60484.78;5048450;28;20103;-66
2022/05/14 09:37:21;;;;;;;13.82;3.10;;;;;;;-145.18;100.00;60484.78;5042404;28;20025;-67
2022/05/14 09:40:00;;;;;;;13.77;2.80;;;;;;;-145.18;100.00;60484.78;5033013;28;20381;-66
2022/05/14 09:42:34;;;;;;;15.35;3.20;;;;;;;-145.18;100.00;60484.78;5033272;28;20040;-67
2022/05/14 09:45:00;;;;;;;17.05;3.50;;;;;;;-145.18;100.00;60484.78;5040702;28;20033;-68
2022/05/14 09:47:31;;;;;;;12.93;3.30;;;;;;;-145.18;100.00;60484.78;5037847;28;20022;-68
2022/05/14 09:50:03;;;;;;;13.88;3.60;;;;;;;-145.18;100.00;60484.78;5040060;28;20057;-66
2022/05/14 09:52:34;;;;;;;14.50;3.33;;;;;;;-145.18;100.00;60484.78;5047300;28;20024;-67
2022/05/14 09:55:03;;;;;;;12.48;3.10;;;;;;;-145.18;100.00;60484.78;5040263;28;20024;-67
2022/05/14 09:57:55;;;;;;;14.57;3.00;;;;;;;-145.18;100.00;60484.78;5036568;28;20033;-67
2022/05/14 10:00:36;;;;;;;12.18;2.70;;;;;;;-145.18;100.00;60484.78;5036085;28;20034;-66
2022/05/14 10:03:23;;;;;;;14.55;3.35;;;;;;;-145.18;100.00;60484.78;5037763;28;20025;-67
2022/05/14 10:05:59;;;;;;;13.13;2.78;;;;;;;-145.18;100.00;60484.78;5046572;28;20040;-67
2022/05/14 10:08:40;;;;;;;14.43;3.25;;;;;;;-145.18;100.00;60484.78;5045207;28;20033;-67
2022/05/14 10:11:11;;;;;;;14.18;3.33;;;;;;;-145.18;100.00;60484.78;5052438;28;20636;-66
2022/05/14 10:13:42;;;;;;;;;;;;;;;-145.18;100.00;60484.78;5037457;28;20028;-66
2022/05/14 10:16:28;;;;;;;12.35;2.88;;;;;;;-145.18;100.00;60484.78;5036563;28;19913;-66
2022/05/14 10:19:08;;;;;;;12.68;3.15;;;;;;;-145.18;100.00;60484.78;5033133;28;20631;-66
2022/05/14 10:21:39;;;;;;;10.77;2.92;;;;;;;-145.18;100.00;60484.78;5032351;28;20035;-66
2022/05/14 10:27:33;;;;;;;10.65;2.83;;;;;;;-145.18;100.00;60484.78;5041182;28;20425;-67
2022/05/14 10:30:20;;;;;;;10.35;3.17;;;;;;;-145.18;100.00;60484.78;5041115;28;20048;-67
2022/05/14 10:32:51;;;;;;;16.38;3.25;;;;;;;-145.18;100.00;60484.78;5031903;28;20024;-67
2022/05/14 10:35:20;;;;;;;13.35;3.20;;;;;;;-145.18;100.00;60484.78;5042687;28;20029;-67
2022/05/14 10:37:55;;;;;;;12.60;3.53;;;;;;;-145.18;100.00;60484.78;5042797;28;20107;-67
2022/05/14 10:40:28;;;;;;;15.18;3.22;;;;;;;-145.18;100.00;60484.78;5038099;28;20037;-67
2022/05/14 10:42:54;;;;;;;13.02;3.03;;;;;;;-145.18;100.00;60484.78;5051340;28;20396;-67
2022/05/14 10:45:24;;;;;;;12.88;3.03;;;;;;;-145.18;100.00;60484.78;5042115;28;20060;-68
2022/05/14 10:48:26;;;;;;;11.38;2.72;;;;;;;-145.18;100.00;60484.78;5051125;28;20031;-67
2022/05/14 10:50:52;;;;;;;9.88;2.70;;;;;;;-145.18;100.00;60484.78;5051306;28;20067;-66
2022/05/14 10:53:18;;;;;;;10.02;3.10;;;;;;;-145.18;100.00;60484.78;5051787;28;20024;-67
2022/05/14 10:55:58;;;;;;;12.95;3.30;;;;;;;-145.18;100.00;60484.78;5045250;28;20417;-68
2022/05/14 10:58:36;;;;;;;15.88;3.17;;;;;;;-145.18;100.00;60484.78;5044883;28;20462;-67
2022/05/14 11:01:10;;;;;;;14.02;3.10;;;;;;;-145.18;100.00;60484.78;5035890;28;20036;-68
2022/05/14 11:03:37;;;;;;;12.60;3.30;;;;;;;-145.18;100.00;60484.78;5040298;28;20385;-67
2022/05/14 11:06:02;;;;;;;18.02;3.80;;;;;;;-145.18;100.00;60484.78;5046885;28;20056;-67
2022/05/14 11:08:32;;;;;;;13.63;3.00;;;;;;;-145.18;100.00;60484.78;5036758;28;20059;-67
2022/05/14 11:11:29;;;;;;;11.83;3.07;;;;;;;-145.18;100.00;60484.78;5047251;28;20024;-67
2022/05/14 11:14:06;;;;;;;15.52;3.22;;;;;;;-145.18;100.00;60484.78;5034424;28;20078;-66
2022/05/14 11:16:51;;;;;;;12.75;3.00;;;;;;;-145.18;100.00;60484.78;5023275;28;20123;-66
2022/05/14 11:19:26;;;;;;;14.55;2.88;;;;;;;-145.18;100.00;60484.78;5022490;28;20029;-68
2022/05/14 11:21:54;;;;;;;14.95;3.20;;;;;;;-145.18;100.00;60484.78;5024013;28;20658;-66
2022/05/14 11:24:39;;;;;;;15.45;3.47;;;;;;;-145.18;100.00;60484.78;5045993;28;20029;-67
2022/05/14 11:27:05;;;;;;;13.23;3.10;;;;;;;-145.18;100.00;60484.78;5051203;28;20544;-67